Time;durP1;ratioP1;P1;durP2;ratioP2;P2;SDS_P1;SDS_P2;PMS_P1;PMS_P2;Temp;Humidity;BMP_temperature;BMP_pressure;BME280_temperature;BME280_humidity;BME280_pressure;Samples;Min_cycle;Max_cycle;Signal;HPM_P1;HPM_P2
2021/11/28 00:00:07;;;;;;;12.05;3.03;;;;;;;;;;4956128;28;20056;-82
2021/11/28 00:02:36;;;;;;;14.05;7.10;;;;;;;;;;4942677;28;20066;-83
2021/11/28 00:05:17;;;;;;;11.90;4.07;;;;;;;;;;4971599;28;20095;-83
2021/11/28 00:07:53;;;;;;;11.80;3.00;;;;;;;;;;4961654;28;20065;-82
2021/11/28 00:13:11;;;;;;;9.13;2.70;;;;;;;;;;4968453;28;20139;-82
2021/11/28 00:16:10;;;;;;;11.05;3.40;;;;;;;;;;4955975;28;20053;-82
2021/11/28 00:18:37;;;;;;;11.02;3.25;;;;;;;;;;4976900;28;20040;-82
2021/11/28 00:21:04;;;;;;;13.65;3.20;;;;;;;;;;4971337;28;20029;-82
2021/11/28 00:23:32;;;;;;;11.68;3.10;;;;;;;;;;4973905;28;20045;-84
2021/11/28 00:26:00;;;;;;;11.40;3.00;;;;;;;;;;4952990;28;20038;-82
2021/11/28 00:28:27;;;;;;;12.55;4.00;;;;;;;;;;4939357;28;20998;-83
2021/11/28 00:30:56;;;;;;;15.88;2.75;;;;;;;;;;4957765;28;20045;-83
2021/11/28 00:33:25;;;;;;;13.38;3.38;;;;;;;;;;4931416;28;20050;-83
2021/11/28 00:35:53;;;;;;;14.55;3.22;;;;;;;;;;4955483;28;20031;-83
2021/11/28 00:38:21;;;;;;;12.40;2.70;;;;;;;;;;4936020;28;20061;-82
2021/11/28 00:40:47;;;;;;;12.73;2.97;;;;;;;;;;4954459;28;20039;-83
2021/11/28 00:43:16;;;;;;;11.88;3.65;;;;;;;;;;4952254;28;20121;-83
2021/11/28 00:45:43;;;;;;;11.77;3.00;;;;;;;;;;4938621;28;20062;-82
2021/11/28 00:48:10;;;;;;;12.35;2.83;;;;;;;;;;4934973;28;20034;-83
2021/11/28 00:50:50;;;;;;;13.52;2.78;;;;;;;;;;4954611;28;20029;-83
2021/11/28 00:53:19;;;;;;;9.65;2.30;;;;;;;;;;4926489;28;20112;-83
2021/11/28 00:55:47;;;;;;;11.57;2.22;;;;;;;;;;4939694;28;20104;-82
2021/11/28 00:58:14;;;;;;;13.73;2.50;;;;;;;;;;4934420;28;20065;-85
2021/11/28 01:00:43;;;;;;;12.38;3.10;;;;;;;;;;4956688;28;20035;-82
2021/11/28 01:03:09;;;;;;;10.45;2.92;;;;;;;;;;4951890;28;20041;-83
2021/11/28 01:05:36;;;;;;;14.95;3.65;;;;;;;;;;4952497;28;20358;-84
2021/11/28 01:08:07;;;;;;;11.52;2.75;;;;;;;;;;4948930;28;20683;-84
2021/11/28 01:10:35;;;;;;;9.60;2.42;;;;;;;;;;4953122;28;20821;-84
2021/11/28 01:13:03;;;;;;;12.15;2.67;;;;;;;;;;4936591;28;20046;-84
2021/11/28 01:15:30;;;;;;;16.00;3.67;;;;;;;;;;4948986;28;20526;-83
2021/11/28 01:17:59;;;;;;;8.80;2.40;;;;;;;;;;4938845;28;20034;-85
2021/11/28 01:20:26;;;;;;;11.02;2.88;;;;;;;;;;4954476;28;20454;-83
2021/11/28 01:22:57;;;;;;;12.98;3.08;;;;;;;;;;4926534;28;20239;-82
2021/11/28 01:25:25;;;;;;;9.98;2.30;;;;;;;;;;4948587;28;20045;-83
2021/11/28 01:27:53;;;;;;;13.00;2.45;;;;;;;;;;4955094;28;20038;-84
2021/11/28 01:30:21;;;;;;;11.52;2.33;;;;;;;;;;4930813;28;21407;-84
2021/11/28 01:32:49;;;;;;;11.80;2.58;;;;;;;;;;4922898;28;20046;-85
2021/11/28 01:35:19;;;;;;;14.55;2.92;;;;;;;;;;4924314;28;20035;-83
2021/11/28 01:37:48;;;;;;;13.18;2.78;;;;;;;;;;4951575;28;20034;-82
2021/11/28 01:40:17;;;;;;;10.60;2.85;;;;;;;;;;4943877;28;20030;-83
2021/11/28 01:42:50;;;;;;;11.07;2.42;;;;;;;;;;4952049;28;20338;-85
2021/11/28 01:45:21;;;;;;;12.98;2.83;;;;;;;;;;4923530;28;20043;-86
2021/11/28 01:47:49;;;;;;;12.93;2.47;;;;;;;;;;4927260;28;20078;-83
2021/11/28 01:50:17;;;;;;;10.00;1.80;;;;;;;;;;4922559;28;20079;-81
2021/11/28 01:52:44;;;;;;;9.05;1.65;;;;;;;;;;4913684;28;20786;-81
2021/11/28 01:55:14;;;;;;;10.15;1.55;;;;;;;;;;4888191;28;20063;-81
2021/11/28 01:57:43;;;;;;;10.70;1.98;;;;;;;;;;4907965;28;20039;-81
2021/11/28 02:00:18;;;;;;;7.88;1.58;;;;;;;;;;4910414;28;20122;-80
2021/11/28 02:02:46;;;;;;;11.07;1.65;;;;;;;;;;4900691;28;20078;-82
2021/11/28 02:05:14;;;;;;;10.55;1.70;;;;;;;;;;4881222;29;20046;-82
2021/11/28 02:07:43;;;;;;;9.88;2.05;;;;;;;;;;4870038;29;20064;-82
2021/11/28 02:10:10;;;;;;;11.30;1.88;;;;;;;;;;4908043;28;20114;-83
2021/11/28 02:12:39;;;;;;;10.40;1.92;;;;;;;;;;4886530;29;20222;-82
2021/11/28 02:15:07;;;;;;;10.27;1.58;;;;;;;;;;4872973;28;20034;-85
2021/11/28 02:17:35;;;;;;;9.95;1.80;;;;;;;;;;4896296;29;20582;-83
2021/11/28 02:20:03;;;;;;;7.68;1.80;;;;;;;;;;4894198;29;20533;-83
2021/11/28 02:22:30;;;;;;;10.23;1.65;;;;;;;;;;4900507;29;20039;-83
2021/11/28 02:24:59;;;;;;;8.68;1.70;;;;;;;;;;4915689;28;20035;-83
2021/11/28 02:27:26;;;;;;;10.07;1.40;;;;;;;;;;4900018;28;20067;-83
2021/11/28 02:29:54;;;;;;;10.10;1.80;;;;;;;;;;4930813;28;20628;-83
2021/11/28 02:32:21;;;;;;;11.45;2.10;;;;;;;;;;4917036;28;20135;-83
2021/11/28 02:34:49;;;;;;;10.52;1.70;;;;;;;;;;4905838;28;20035;-83
2021/11/28 02:37:17;;;;;;;12.57;2.20;;;;;;;;;;4919698;28;20035;-83
2021/11/28 02:39:45;;;;;;;9.63;1.80;;;;;;;;;;4923053;28;20039;-84
2021/11/28 02:42:13;;;;;;;10.98;2.15;;;;;;;;;;4920159;28;20039;-84
2021/11/28 02:44:41;;;;;;;11.48;1.98;;;;;;;;;;4925518;28;20035;-83
2021/11/28 02:47:08;;;;;;;10.82;1.83;;;;;;;;;;4937660;28;20070;-83
2021/11/28 02:49:35;;;;;;;7.63;1.50;;;;;;;;;;4964100;28;20027;-84
2021/11/28 02:52:03;;;;;;;9.73;1.70;;;;;;;;;;4935586;28;20034;-84
2021/11/28 02:54:32;;;;;;;9.20;1.70;;;;;;;;;;4954782;28;20129;-84
2021/11/28 02:57:02;;;;;;;11.27;2.00;;;;;;;;;;4962333;28;20494;-84
2021/11/28 02:59:30;;;;;;;7.47;1.08;;;;;;;;;;4960037;28;20148;-86
2021/11/28 03:01:57;;;;;;;13.57;4.47;;;;;;;;;;4959912;28;20064;-84
2021/11/28 03:04:24;;;;;;;8.18;1.98;;;;;;;;;;4973575;28;20038;-85
2021/11/28 03:06:51;;;;;;;11.05;2.45;;;;;;;;;;4979787;28;20041;-84
2021/11/28 03:09:20;;;;;;;8.75;1.88;;;;;;;;;;4969873;28;20042;-84
2021/11/28 03:11:46;;;;;;;11.52;1.90;;;;;;;;;;4960737;28;20033;-84
2021/11/28 03:14:13;;;;;;;10.77;1.88;;;;;;;;;;4955106;28;20072;-83
2021/11/28 03:16:41;;;;;;;9.98;1.60;;;;;;;;;;4964950;28;20488;-84
2021/11/28 03:19:09;;;;;;;9.48;1.60;;;;;;;;;;4975357;28;20895;-83
2021/11/28 03:21:38;;;;;;;8.40;1.80;;;;;;;;;;4971396;28;20109;-82
2021/11/28 03:24:06;;;;;;;8.25;1.52;;;;;;;;;;4946630;28;20046;-82
2021/11/28 03:26:54;;;;;;;8.88;1.70;;;;;;;;;;4945219;28;20136;-84
2021/11/28 03:29:23;;;;;;;9.88;1.42;;;;;;;;;;4975326;28;20068;-82
2021/11/28 03:31:53;;;;;;;9.63;1.45;;;;;;;;;;4960080;28;20045;-81
2021/11/28 03:34:22;;;;;;;7.60;1.50;;;;;;;;;;4939386;28;20062;-82
2021/11/28 03:36:51;;;;;;;8.68;1.55;;;;;;;;;;4951838;28;20041;-82
2021/11/28 03:39:21;;;;;;;9.68;1.42;;;;;;;;;;4952619;28;21963;-82
2021/11/28 03:41:50;;;;;;;9.27;1.95;;;;;;;;;;4941563;28;20026;-82
2021/11/28 03:44:18;;;;;;;7.90;1.40;;;;;;;;;;4941599;28;20034;-86
2021/11/28 03:46:47;;;;;;;10.77;1.58;;;;;;;;;;4969406;28;20301;-85
2021/11/28 03:49:14;;;;;;;11.05;1.63;;;;;;;;;;4956068;28;20053;-82
2021/11/28 03:51:41;;;;;;;13.13;1.85;;;;;;;;;;4962380;28;20038;-87
2021/11/28 03:54:09;;;;;;;8.98;1.90;;;;;;;;;;4951066;28;20137;-87
2021/11/28 03:56:36;;;;;;;12.63;1.95;;;;;;;;;;4948336;28;20596;-87
2021/11/28 03:59:05;;;;;;;9.27;1.38;;;;;;;;;;4942610;28;20046;-81
2021/11/28 04:01:33;;;;;;;9.68;1.60;;;;;;;;;;4955572;28;20054;-82
2021/11/28 04:04:02;;;;;;;9.38;1.33;;;;;;;;;;4955598;28;20058;-81
2021/11/28 04:06:29;;;;;;;10.70;1.73;;;;;;;;;;4952855;28;20131;-81
2021/11/28 04:08:57;;;;;;;12.95;1.90;;;;;;;;;;4941579;28;20034;-82
2021/11/28 04:11:26;;;;;;;9.57;1.30;;;;;;;;;;4953183;28;20177;-83
2021/11/28 04:13:53;;;;;;;10.35;1.48;;;;;;;;;;4950793;28;20053;-81
2021/11/28 04:16:22;;;;;;;10.68;1.30;;;;;;;;;;4935618;28;21920;-81
2021/11/28 04:18:50;;;;;;;12.55;1.95;;;;;;;;;;4936804;28;20201;-82
2021/11/28 04:21:17;;;;;;;8.93;1.55;;;;;;;;;;4932980;28;20112;-82
2021/11/28 04:23:48;;;;;;;9.30;1.48;;;;;;;;;;4957016;28;20173;-82
2021/11/28 04:26:16;;;;;;;10.88;1.58;;;;;;;;;;4916042;28;20077;-82
2021/11/28 04:28:43;;;;;;;11.95;1.67;;;;;;;;;;4936763;28;20039;-82
2021/11/28 04:31:11;;;;;;;8.18;1.42;;;;;;;;;;4910489;28;20043;-83
2021/11/28 04:33:39;;;;;;;8.48;1.13;;;;;;;;;;4950318;28;20109;-82
2021/11/28 04:36:08;;;;;;;10.02;1.83;;;;;;;;;;4951889;28;20561;-83
2021/11/28 04:38:36;;;;;;;6.95;1.25;;;;;;;;;;4940089;28;20038;-82
2021/11/28 04:41:04;;;;;;;9.75;1.30;;;;;;;;;;4948233;28;20045;-82
2021/11/28 04:43:32;;;;;;;7.45;1.55;;;;;;;;;;4954506;28;20652;-82
2021/11/28 04:46:00;;;;;;;10.00;1.67;;;;;;;;;;4936392;28;20465;-83
2021/11/28 04:48:27;;;;;;;8.45;1.30;;;;;;;;;;4937094;28;20066;-82
2021/11/28 04:50:55;;;;;;;9.20;1.10;;;;;;;;;;4941204;28;20565;-82
2021/11/28 04:53:22;;;;;;;11.30;1.30;;;;;;;;;;4939471;28;20095;-82
2021/11/28 04:55:50;;;;;;;9.27;1.63;;;;;;;;;;4955130;28;20057;-83
2021/11/28 04:58:17;;;;;;;10.65;1.73;;;;;;;;;;4952258;28;20042;-82
2021/11/28 05:00:43;;;;;;;8.50;1.63;;;;;;;;;;4919808;28;20038;-82
2021/11/28 05:03:11;;;;;;;8.02;1.20;;;;;;;;;;4937104;28;20038;-82
2021/11/28 05:05:39;;;;;;;10.43;1.42;;;;;;;;;;4939063;28;20022;-81
2021/11/28 05:08:07;;;;;;;9.93;1.40;;;;;;;;;;4950410;28;20069;-80
2021/11/28 05:10:34;;;;;;;9.80;2.00;;;;;;;;;;4954945;28;20046;-86
2021/11/28 05:13:01;;;;;;;9.57;1.42;;;;;;;;;;4936227;28;20038;-85
2021/11/28 05:15:29;;;;;;;9.45;1.65;;;;;;;;;;4955546;28;20153;-84
2021/11/28 05:17:56;;;;;;;13.32;2.88;;;;;;;;;;4958539;28;20270;-82
2021/11/28 05:20:23;;;;;;;8.88;1.90;;;;;;;;;;4937632;28;20100;-82
2021/11/28 05:22:50;;;;;;;9.60;1.55;;;;;;;;;;4939106;28;20042;-82
2021/11/28 05:25:18;;;;;;;7.03;1.00;;;;;;;;;;4945046;28;20053;-82
2021/11/28 05:27:47;;;;;;;8.43;1.17;;;;;;;;;;4970271;28;20900;-81
2021/11/28 05:30:16;;;;;;;13.63;1.50;;;;;;;;;;4970993;28;20104;-82
2021/11/28 05:32:43;;;;;;;11.95;1.95;;;;;;;;;;4924959;28;20161;-82
2021/11/28 05:35:12;;;;;;;9.85;1.20;;;;;;;;;;4958551;28;20413;-84
2021/11/28 05:37:40;;;;;;;8.27;1.10;;;;;;;;;;4990794;28;20405;-87
2021/11/28 05:40:27;;;;;;;10.90;1.42;;;;;;;;;;4982254;28;20038;-86
2021/11/28 05:42:54;;;;;;;9.10;1.08;;;;;;;;;;4920063;28;20122;-86
2021/11/28 05:45:33;;;;;;;12.68;1.60;;;;;;;;;;4919200;28;20161;-85
2021/11/28 05:48:00;;;;;;;7.65;1.58;;;;;;;;;;4918101;28;20043;-85
2021/11/28 05:50:29;;;;;;;7.93;1.30;;;;;;;;;;4905958;28;20047;-86
2021/11/28 05:52:56;;;;;;;6.40;1.00;;;;;;;;;;4899371;28;20447;-88
2021/11/28 05:55:24;;;;;;;10.70;2.00;;;;;;;;;;4888527;28;20518;-84
2021/11/28 05:57:51;;;;;;;7.78;1.23;;;;;;;;;;4904659;28;20063;-85
2021/11/28 06:00:21;;;;;;;8.20;1.30;;;;;;;;;;4913655;28;20471;-85
2021/11/28 06:02:50;;;;;;;9.52;1.20;;;;;;;;;;4917771;28;20278;-86
2021/11/28 06:05:18;;;;;;;10.02;1.20;;;;;;;;;;4900316;28;20052;-86
2021/11/28 06:07:45;;;;;;;9.30;1.20;;;;;;;;;;4918178;28;20058;-85
2021/11/28 06:10:14;;;;;;;6.90;1.00;;;;;;;;;;4913690;28;20050;-85
2021/11/28 06:12:42;;;;;;;9.68;1.27;;;;;;;;;;4911623;28;20036;-86
2021/11/28 06:15:08;;;;;;;5.97;1.05;;;;;;;;;;4895961;28;20043;-86
2021/11/28 06:17:35;;;;;;;7.07;1.00;;;;;;;;;;4924122;28;20023;-85
2021/11/28 06:20:07;;;;;;;6.97;1.00;;;;;;;;;;4916140;28;21068;-86
2021/11/28 06:22:36;;;;;;;10.02;1.30;;;;;;;;;;4923244;28;20074;-86
2021/11/28 06:25:04;;;;;;;9.95;1.50;;;;;;;;;;4912215;28;20215;-86
2021/11/28 06:27:34;;;;;;;8.27;1.13;;;;;;;;;;4952000;28;20038;-86
2021/11/28 06:30:06;;;;;;;8.85;1.50;;;;;;;;;;4960951;28;20038;-87
2021/11/28 06:32:33;;;;;;;7.05;1.25;;;;;;;;;;4966809;28;20032;-86
2021/11/28 06:35:01;;;;;;;9.05;1.30;;;;;;;;;;4937871;28;20560;-86
2021/11/28 06:37:29;;;;;;;10.48;2.30;;;;;;;;;;4960706;28;20085;-87
2021/11/28 06:39:58;;;;;;;9.70;2.00;;;;;;;;;;4955648;28;20057;-85
2021/11/28 06:42:27;;;;;;;7.07;1.10;;;;;;;;;;4957923;28;20041;-86
2021/11/28 06:44:54;;;;;;;7.97;1.30;;;;;;;;;;4959175;28;20035;-86
2021/11/28 06:47:22;;;;;;;7.95;1.25;;;;;;;;;;4942816;28;20674;-86
2021/11/28 06:49:51;;;;;;;9.43;1.75;;;;;;;;;;4962271;28;20038;-85
2021/11/28 06:52:18;;;;;;;7.97;1.33;;;;;;;;;;4947461;28;20701;-86
2021/11/28 06:54:47;;;;;;;8.80;1.38;;;;;;;;;;4955960;28;20127;-86
2021/11/28 06:57:15;;;;;;;9.55;1.70;;;;;;;;;;4939737;28;20299;-85
2021/11/28 06:59:44;;;;;;;9.40;1.60;;;;;;;;;;4953082;28;20038;-86
2021/11/28 07:02:11;;;;;;;9.52;1.63;;;;;;;;;;4934291;28;20042;-85
2021/11/28 07:04:40;;;;;;;8.85;1.83;;;;;;;;;;4922185;28;20106;-87
2021/11/28 07:07:09;;;;;;;8.68;1.60;;;;;;;;;;4932955;28;20107;-86
2021/11/28 07:09:37;;;;;;;9.52;2.22;;;;;;;;;;4935822;28;20051;-86
2021/11/28 07:12:05;;;;;;;12.85;1.67;;;;;;;;;;4919949;28;20039;-87
2021/11/28 07:14:34;;;;;;;10.18;2.10;;;;;;;;;;4938557;28;20042;-86
2021/11/28 07:17:02;;;;;;;8.27;1.88;;;;;;;;;;4934637;28;20113;-87
2021/11/28 07:19:29;;;;;;;11.43;1.60;;;;;;;;;;4938742;28;20027;-85
2021/11/28 07:21:57;;;;;;;9.35;1.50;;;;;;;;;;4907520;28;20039;-86
2021/11/28 07:24:25;;;;;;;7.90;1.70;;;;;;;;;;4946082;28;20037;-86
2021/11/28 07:26:51;;;;;;;11.48;1.63;;;;;;;;;;4960899;28;20041;-87
2021/11/28 07:29:19;;;;;;;10.13;1.73;;;;;;;;;;4975090;28;20120;-86
2021/11/28 07:31:48;;;;;;;11.27;2.17;;;;;;;;;;4947442;28;20064;-86
2021/11/28 07:34:15;;;;;;;9.35;2.17;;;;;;;;;;4943549;28;20628;-87
2021/11/28 07:36:42;;;;;;;9.85;2.40;;;;;;;;;;4976283;28;20038;-86
2021/11/28 07:39:09;;;;;;;12.77;2.70;;;;;;;;;;4963278;28;20041;-87
2021/11/28 07:41:37;;;;;;;16.05;5.18;;;;;;;;;;4972394;28;20080;-86
2021/11/28 07:44:05;;;;;;;17.73;5.13;;;;;;;;;;4983611;28;20034;-86
2021/11/28 07:46:33;;;;;;;11.98;2.38;;;;;;;;;;4973186;28;20042;-86
2021/11/28 07:49:01;;;;;;;9.40;1.85;;;;;;;;;;4952277;28;20916;-86
2021/11/28 07:51:27;;;;;;;10.52;2.47;;;;;;;;;;4970266;28;20046;-85
2021/11/28 07:53:56;;;;;;;10.80;1.90;;;;;;;;;;4979146;28;20030;-86
2021/11/28 07:56:25;;;;;;;8.65;1.65;;;;;;;;;;4978588;28;20034;-86
2021/11/28 07:58:52;;;;;;;9.15;1.95;;;;;;;;;;4977261;28;20038;-86
2021/11/28 08:01:21;;;;;;;10.20;2.53;;;;;;;;;;4976732;28;20879;-87
2021/11/28 08:03:49;;;;;;;12.95;2.90;;;;;;;;;;4976606;28;20034;-87
2021/11/28 08:06:18;;;;;;;10.70;2.40;;;;;;;;;;4978379;28;20037;-86
2021/11/28 08:08:46;;;;;;;10.15;1.98;;;;;;;;;;4976892;28;20045;-88
2021/11/28 08:11:15;;;;;;;10.80;2.78;;;;;;;;;;4972073;28;20046;-87
2021/11/28 08:13:47;;;;;;;9.02;2.55;;;;;;;;;;4980581;28;20065;-86
2021/11/28 08:16:18;;;;;;;16.17;6.32;;;;;;;;;;4978704;28;20088;-87
2021/11/28 08:18:47;;;;;;;12.75;4.38;;;;;;;;;;4979871;28;20038;-88
2021/11/28 08:21:14;;;;;;;12.35;3.35;;;;;;;;;;4975216;28;20117;-87
2021/11/28 08:23:42;;;;;;;10.93;3.42;;;;;;;;;;4979218;28;20029;-87
2021/11/28 08:26:09;;;;;;;12.52;3.83;;;;;;;;;;4976879;28;20049;-86
2021/11/28 08:28:36;;;;;;;15.30;6.18;;;;;;;;;;4982539;28;20046;-88
2021/11/28 08:31:06;;;;;;;15.05;4.60;;;;;;;;;;4976671;28;20048;-88
2021/11/28 08:33:33;;;;;;;14.73;7.20;;;;;;;;;;4965322;28;20057;-86
2021/11/28 08:35:59;;;;;;;;;;;;;;;;;;4977692;28;20033;-87
2021/11/28 08:38:27;;;;;;;15.05;5.53;;;;;;;;;;4982807;28;19906;-87
2021/11/28 08:40:55;;;;;;;11.40;3.65;;;;;;;;;;4981936;28;20041;-87
2021/11/28 08:43:22;;;;;;;12.38;3.67;;;;;;;;;;4981788;28;20045;-89
2021/11/28 08:45:49;;;;;;;8.90;2.03;;;;;;;;;;4983875;28;20038;-88
2021/11/28 08:48:18;;;;;;;7.65;1.30;;;;;;;;;;4982357;28;20133;-89
2021/11/28 08:50:46;;;;;;;7.75;1.45;;;;;;;;;;4977956;28;20644;-86
2021/11/28 08:53:16;;;;;;;7.20;0.95;;;;;;;;;;4976840;28;20133;-88
2021/11/28 08:55:45;;;;;;;5.30;1.00;;;;;;;;;;4967395;28;20030;-87
2021/11/28 08:58:12;;;;;;;9.98;1.00;;;;;;;;;;4972450;28;20121;-88
2021/11/28 09:00:40;;;;;;;5.65;1.30;;;;;;;;;;4972061;28;20048;-88
2021/11/28 09:03:07;;;;;;;6.93;1.30;;;;;;;;;;4962168;28;20045;-87
2021/11/28 09:05:34;;;;;;;7.10;1.58;;;;;;;;;;4978880;28;20030;-86
2021/11/28 09:08:02;;;;;;;7.53;1.50;;;;;;;;;;4980701;28;20037;-85
2021/11/28 09:10:31;;;;;;;8.52;1.75;;;;;;;;;;4982582;28;20132;-90
2021/11/28 09:12:59;;;;;;;8.13;1.88;;;;;;;;;;4989585;28;20041;-88
2021/11/28 09:15:28;;;;;;;8.13;1.60;;;;;;;;;;4990601;28;20065;-87
2021/11/28 09:18:04;;;;;;;10.20;1.48;;;;;;;;;;4994429;28;20122;-89
2021/11/28 09:20:33;;;;;;;9.25;1.73;;;;;;;;;;4996115;28;20030;-88
2021/11/28 09:25:33;;;;;;;5.75;1.35;;;;;;;;;;4987110;28;20058;-91
2021/11/28 09:28:00;;;;;;;10.13;1.40;;;;;;;;;;4987556;28;20027;-90
2021/11/28 09:30:29;;;;;;;12.15;2.03;;;;;;;;;;4989143;28;20060;-90
2021/11/28 09:32:58;;;;;;;8.05;1.45;;;;;;;;;;4985458;28;20036;-87
2021/11/28 09:35:27;;;;;;;8.48;1.50;;;;;;;;;;4982065;28;20025;-88
2021/11/28 09:37:57;;;;;;;10.00;1.48;;;;;;;;;;4988667;28;20030;-88
2021/11/28 09:40:24;;;;;;;11.15;1.60;;;;;;;;;;4991285;28;20564;-89
2021/11/28 09:42:54;;;;;;;7.13;1.60;;;;;;;;;;4982967;28;20042;-88
2021/11/28 09:45:33;;;;;;;7.95;1.40;;;;;;;;;;4979192;28;22433;-88
2021/11/28 09:48:01;;;;;;;7.45;1.25;;;;;;;;;;4985232;28;20503;-89
2021/11/28 09:50:28;;;;;;;7.97;1.10;;;;;;;;;;4994452;28;20096;-91
2021/11/28 09:52:57;;;;;;;6.82;1.65;;;;;;;;;;4988586;28;20050;-91
2021/11/28 09:55:27;;;;;;;6.65;1.40;;;;;;;;;;4986135;28;20068;-90
2021/11/28 09:57:54;;;;;;;8.82;1.52;;;;;;;;;;4986621;28;20473;-85
2021/11/28 10:00:22;;;;;;;7.63;1.33;;;;;;;;;;5002539;28;20783;-87
2021/11/28 10:02:52;;;;;;;9.20;1.38;;;;;;;;;;4987294;28;20042;-90
2021/11/28 10:05:19;;;;;;;6.65;1.02;;;;;;;;;;4984118;28;20025;-88
2021/11/28 10:07:50;;;;;;;6.20;1.20;;;;;;;;;;4987095;28;20034;-94
2021/11/28 10:10:19;;;;;;;9.88;1.02;;;;;;;;;;4968958;28;20030;-89
2021/11/28 10:12:51;;;;;;;9.57;1.55;;;;;;;;;;4983030;28;20755;-86
2021/11/28 10:15:27;;;;;;;7.93;1.00;;;;;;;;;;4979447;28;20182;-90
2021/11/28 10:17:54;;;;;;;10.07;1.70;;;;;;;;;;4986364;28;20037;-90
2021/11/28 10:20:29;;;;;;;8.73;1.70;;;;;;;;;;4981950;28;20099;-87
2021/11/28 10:22:58;;;;;;;9.38;1.75;;;;;;;;;;4984995;28;20619;-86
2021/11/28 10:25:38;;;;;;;6.15;1.20;;;;;;;;;;4949294;28;20054;-88
2021/11/28 10:28:17;;;;;;;9.50;1.50;;;;;;;;;;4978485;28;20091;-90
2021/11/28 10:30:46;;;;;;;6.85;1.42;;;;;;;;;;4987103;28;20084;-89
2021/11/28 10:33:19;;;;;;;6.25;1.10;;;;;;;;;;4979112;28;20559;-86
2021/11/28 10:36:07;;;;;;;7.43;1.30;;;;;;;;;;4970217;28;20072;-83
2021/11/28 10:38:45;;;;;;;8.10;1.38;;;;;;;;;;4986503;28;20393;-89
2021/11/28 10:41:18;;;;;;;7.50;1.20;;;;;;;;;;4981487;28;20038;-87
2021/11/28 10:43:45;;;;;;;7.85;1.27;;;;;;;;;;4972456;28;20065;-88
2021/11/28 10:46:30;;;;;;;6.22;1.20;;;;;;;;;;4976000;28;20116;-89
2021/11/28 10:49:08;;;;;;;5.57;1.15;;;;;;;;;;4987840;28;20536;-89
2021/11/28 10:51:41;;;;;;;7.38;1.40;;;;;;;;;;4982591;28;20069;-88
2021/11/28 10:54:27;;;;;;;7.90;1.50;;;;;;;;;;4975689;28;20596;-88
2021/11/28 10:57:11;;;;;;;12.18;2.30;;;;;;;;;;4980342;28;20037;-88
2021/11/28 10:59:40;;;;;;;8.15;1.10;;;;;;;;;;4965300;28;20026;-87
2021/11/28 11:02:27;;;;;;;7.45;1.20;;;;;;;;;;4946572;28;20050;-88
2021/11/28 11:04:59;;;;;;;9.20;1.75;;;;;;;;;;4958381;28;20057;-87
2021/11/28 11:07:31;;;;;;;9.13;2.13;;;;;;;;;;4966678;28;20030;-87
2021/11/28 11:10:03;;;;;;;9.15;1.77;;;;;;;;;;4949825;28;20528;-86
2021/11/28 11:12:36;;;;;;;10.07;1.92;;;;;;;;;;4971940;28;20042;-88
2021/11/28 11:15:04;;;;;;;6.90;1.70;;;;;;;;;;4922518;28;20718;-85
2021/11/28 11:17:35;;;;;;;7.50;1.70;;;;;;;;;;4979613;28;20030;-92
2021/11/28 11:20:03;;;;;;;9.35;1.90;;;;;;;;;;4973868;28;20036;-86
2021/11/28 11:22:35;;;;;;;7.85;1.00;;;;;;;;;;4959245;28;20397;-87
2021/11/28 11:25:18;;;;;;;9.27;3.17;;;;;;;;;;4975363;28;20189;-86
2021/11/28 11:27:45;;;;;;;10.27;1.23;;;;;;;;;;4957732;28;20046;-86
2021/11/28 11:30:14;;;;;;;9.25;2.05;;;;;;;;;;4965467;28;20049;-86
2021/11/28 11:32:44;;;;;;;8.95;2.00;;;;;;;;;;4960531;28;20054;-86
2021/11/28 11:35:16;;;;;;;7.40;1.60;;;;;;;;;;4965448;28;20169;-86
2021/11/28 11:37:45;;;;;;;6.75;1.40;;;;;;;;;;4970401;28;20045;-85
2021/11/28 11:40:14;;;;;;;10.43;2.08;;;;;;;;;;4935497;28;20045;-86
2021/11/28 11:42:43;;;;;;;5.97;1.60;;;;;;;;;;4958027;28;20668;-85
2021/11/28 11:45:11;;;;;;;8.68;2.50;;;;;;;;;;4966823;28;20030;-84
2021/11/28 11:47:41;;;;;;;11.23;2.75;;;;;;;;;;4977562;28;20738;-86
2021/11/28 11:50:11;;;;;;;6.97;1.67;;;;;;;;;;4952299;28;20041;-84
2021/11/28 11:52:38;;;;;;;13.18;2.70;;;;;;;;;;4976727;28;20042;-85
2021/11/28 11:55:20;;;;;;;11.23;2.60;;;;;;;;;;4969262;28;20052;-85
2021/11/28 11:57:59;;;;;;;6.88;1.70;;;;;;;;;;4981003;28;20060;-85
2021/11/28 12:00:40;;;;;;;8.43;1.63;;;;;;;;;;4979074;28;20066;-85
2021/11/28 12:03:14;;;;;;;11.93;1.70;;;;;;;;;;4970906;28;20494;-84
2021/11/28 12:05:46;;;;;;;7.75;1.60;;;;;;;;;;4956309;28;20076;-85
2021/11/28 12:08:21;;;;;;;10.52;2.10;;;;;;;;;;4947888;28;20030;-85
2021/11/28 12:10:51;;;;;;;10.80;1.50;;;;;;;;;;4973449;28;20418;-84
2021/11/28 12:13:31;;;;;;;9.65;1.55;;;;;;;;;;4970427;28;20045;-84
2021/11/28 12:16:08;;;;;;;10.30;2.70;;;;;;;;;;4977540;28;20033;-84
2021/11/28 12:18:35;;;;;;;10.75;2.22;;;;;;;;;;4957859;28;20623;-84
2021/11/28 12:21:07;;;;;;;12.05;2.88;;;;;;;;;;4971048;28;20034;-85
2021/11/28 12:23:52;;;;;;;11.23;2.72;;;;;;;;;;4951393;28;20034;-85
2021/11/28 12:26:30;;;;;;;11.55;2.20;;;;;;;;;;4954510;28;20058;-85
2021/11/28 12:29:22;;;;;;;10.82;2.05;;;;;;;;;;4953334;28;20575;-85
2021/11/28 12:31:52;;;;;;;12.50;3.45;;;;;;;;;;4954994;28;20041;-84
2021/11/28 12:34:28;;;;;;;11.27;2.25;;;;;;;;;;4948019;28;20049;-84
2021/11/28 12:36:56;;;;;;;13.38;3.55;;;;;;;;;;4917799;28;20049;-84
2021/11/28 12:39:27;;;;;;;9.65;2.25;;;;;;;;;;4935106;28;20529;-84
2021/11/28 12:42:07;;;;;;;14.40;3.00;;;;;;;;;;4954693;28;20046;-84
2021/11/28 12:44:38;;;;;;;10.77;2.00;;;;;;;;;;4956983;28;20030;-84
2021/11/28 12:47:12;;;;;;;10.40;1.80;;;;;;;;;;4936832;28;20042;-84
2021/11/28 12:49:52;;;;;;;15.65;2.30;;;;;;;;;;4957972;28;20034;-84
2021/11/28 12:52:29;;;;;;;13.05;1.98;;;;;;;;;;4955166;28;20172;-84
2021/11/28 12:55:13;;;;;;;15.13;3.13;;;;;;;;;;4958580;28;21599;-84
2021/11/28 12:57:47;;;;;;;13.82;2.88;;;;;;;;;;4951193;28;20181;-85
2021/11/28 13:00:23;;;;;;;11.65;2.38;;;;;;;;;;4955962;28;20038;-84
2021/11/28 13:02:52;;;;;;;13.95;4.20;;;;;;;;;;4941780;28;20039;-84
2021/11/28 13:05:33;;;;;;;16.23;3.88;;;;;;;;;;4953754;28;20513;-84
2021/11/28 13:08:06;;;;;;;14.27;3.15;;;;;;;;;;4955091;28;20042;-84
2021/11/28 13:10:52;;;;;;;13.02;2.50;;;;;;;;;;4941722;28;20042;-83
2021/11/28 13:13:26;;;;;;;14.73;2.70;;;;;;;;;;4941386;28;20764;-85
2021/11/28 13:15:58;;;;;;;10.23;2.15;;;;;;;;;;4945107;28;20044;-83
2021/11/28 13:18:29;;;;;;;11.18;2.40;;;;;;;;;;4947564;28;20038;-86
2021/11/28 13:21:15;;;;;;;12.80;2.85;;;;;;;;;;4943563;28;20039;-84
2021/11/28 13:23:45;;;;;;;10.27;3.03;;;;;;;;;;4943176;28;20038;-83
2021/11/28 13:26:40;;;;;;;11.95;2.50;;;;;;;;;;4980041;28;20053;-84
2021/11/28 13:29:10;;;;;;;11.65;2.70;;;;;;;;;;4976971;28;20041;-84
2021/11/28 13:31:44;;;;;;;12.35;3.80;;;;;;;;;;4983318;28;20038;-90
2021/11/28 13:34:13;;;;;;;9.38;2.80;;;;;;;;;;4963369;28;20046;-86
2021/11/28 13:36:41;;;;;;;9.15;2.17;;;;;;;;;;4970411;28;20038;-89
2021/11/28 13:39:09;;;;;;;14.90;2.47;;;;;;;;;;4998115;28;20046;-86
2021/11/28 13:41:37;;;;;;;12.02;2.83;;;;;;;;;;4993739;28;20098;-88
2021/11/28 13:44:14;;;;;;;11.98;2.90;;;;;;;;;;5004547;28;20023;-83
2021/11/28 13:46:55;;;;;;;13.35;2.95;;;;;;;;;;4986124;28;20052;-87
2021/11/28 13:49:28;;;;;;;9.43;2.60;;;;;;;;;;4984193;28;20038;-87
2021/11/28 13:52:07;;;;;;;10.05;2.15;;;;;;;;;;4993479;28;20025;-87
2021/11/28 13:54:45;;;;;;;10.90;2.60;;;;;;;;;;4980898;28;20104;-86
2021/11/28 13:57:26;;;;;;;9.40;2.05;;;;;;;;;;4987263;28;20030;-86
2021/11/28 13:59:56;;;;;;;10.90;2.38;;;;;;;;;;4980610;28;20053;-86
2021/11/28 14:02:24;;;;;;;10.32;2.38;;;;;;;;;;4957020;28;20030;-86
2021/11/28 14:04:56;;;;;;;12.85;2.22;;;;;;;;;;4960560;28;20707;-86
2021/11/28 14:08:02;;;;;;;14.45;4.20;;;;;;;;;;4980321;28;20037;-85
2021/11/28 14:10:30;;;;;;;12.35;3.22;;;;;;;;;;4926771;28;20134;-85
2021/11/28 14:12:59;;;;;;;14.27;2.95;;;;;;;;;;4908285;28;20038;-85
2021/11/28 14:15:28;;;;;;;10.75;2.35;;;;;;;;;;4908646;28;20550;-85
2021/11/28 14:18:04;;;;;;;13.18;2.50;;;;;;;;;;4922747;28;20043;-85
2021/11/28 14:20:51;;;;;;;11.48;2.15;;;;;;;;;;4924466;28;20023;-85
2021/11/28 14:23:21;;;;;;;11.95;1.83;;;;;;;;;;4886856;29;20044;-83
2021/11/28 14:25:51;;;;;;;11.23;2.05;;;;;;;;;;4885854;29;20051;-84
2021/11/28 14:28:34;;;;;;;10.48;2.03;;;;;;;;;;4885271;29;20159;-85
2021/11/28 14:31:17;;;;;;;12.02;2.40;;;;;;;;;;4887077;29;20044;-85
2021/11/28 14:33:48;;;;;;;8.82;2.08;;;;;;;;;;4874572;29;20058;-84
2021/11/28 14:36:25;;;;;;;13.38;2.70;;;;;;;;;;4836209;29;20117;-84
2021/11/28 14:38:58;;;;;;;9.50;1.90;;;;;;;;;;4882564;29;20040;-85
2021/11/28 14:41:34;;;;;;;11.48;2.35;;;;;;;;;;4883997;28;20062;-85
2021/11/28 14:44:11;;;;;;;11.80;3.10;;;;;;;;;;4891276;28;20035;-85
2021/11/28 14:46:39;;;;;;;11.93;2.65;;;;;;;;;;4927202;28;20039;-86
2021/11/28 14:49:11;;;;;;;14.10;3.03;;;;;;;;;;4921069;28;20066;-85
2021/11/28 14:51:57;;;;;;;13.23;3.10;;;;;;;;;;4922498;28;20035;-85
2021/11/28 14:54:28;;;;;;;10.88;3.42;;;;;;;;;;4948912;28;20046;-84
2021/11/28 14:57:19;;;;;;;11.02;2.97;;;;;;;;;;4962719;28;20574;-85
2021/11/28 14:59:49;;;;;;;10.68;2.40;;;;;;;;;;4962880;28;20049;-81